Nearby METAR Reports

 

KEQY - Monroe, North Carolina, USA
Distance from station: S 11mi, 18km
Updated: Tue, 10/21/2014 10:53pm EDT
Partly cloudy
Partly cloudy
 Wind from N
Wind: N 8 mph , 13 km/h
Temperature: 59°F , 15°C
Dew Point: 39°F , 4°C
Humidity: 48%
Barometer: 29.97 inHg , 1014.9 hPa
Clouds: Partly cloudy
Visibility: 10 miles , 16 km
Cloud details: Partly cloudy 7500 ft
2014/10/22 02:53 KEQY 220253Z AUTO 36007KT 10SM SCT075 15/04 A2997 RMK AO2 SLP154 T01500044 51019
KJQF - Concord Reg Arpt, North Carolina, USA
Distance from station: NNW 16mi, 25km
Updated: Tue, 10/21/2014 10:50pm EDT
Clear
Clear
 Wind from N
Wind: N 7 mph , 11 km/h
Temperature: 54°F , 12°C
Dew Point: 39°F , 4°C
Humidity: 58%
Barometer: 30.02 inHg , 1016.6 hPa
Clouds: Clear
Visibility: 10 miles , 16 km
2014/10/22 02:50 KJQF 220250Z 36006KT 10SM CLR 12/04 A3002
 
KCLT - Charlotte, North Carolina, USA
Distance from station: W 20mi, 33km
Updated: Tue, 10/21/2014 10:52pm EDT
Few Clouds
Few Clouds
 Wind from NNW
Wind: NNW 6 mph , 9 km/h
Temperature: 55°F , 13°C
Dew Point: 37°F , 3°C
Humidity: 51%
Barometer: 29.99 inHg , 1015.6 hPa
Clouds: Few Clouds
Visibility: 10 miles , 16 km
Cloud details: Few Clouds 7000 ft
2014/10/22 02:52 KCLT 220252Z 34005KT 10SM FEW070 13/03 A2999 RMK AO2 SLP151 T01330033 51017
KUZA - Rock Hill, South Carolina, USA
Distance from station: WSW 29mi, 47km
Updated: Tue, 10/21/2014 10:54pm EDT
Mostly cloudy
Mostly cloudy
 Wind from NNE
Wind: NNE 13 mph , 20 km/h
Temperature: 57°F , 14°C
Dew Point: 41°F , 5°C
Humidity: 55%
Barometer: 29.98 inHg , 1015.2 hPa
Clouds: Mostly cloudy
Visibility: 10 miles , 16 km
Cloud details: Mostly cloudy 7000 ft
2014/10/22 02:54 KUZA 220254Z AUTO 02011KT 10SM BKN070 14/05 A2998 RMK AO2 SLP148 T01440050 51015
 
KVUJ - Albemarle Stanly, North Carolina, USA
Distance from station: NE 30mi, 48km
Updated: Tue, 10/21/2014 10:55pm EDT
Mostly cloudy
Mostly cloudy
 Wind from N
Wind: N 6 mph , 9 km/h
Temperature: 57°F , 14°C
Dew Point: 39°F , 4°C
Humidity: 51%
Barometer: 30.02 inHg , 1016.6 hPa
Clouds: Mostly cloudy
Visibility: 10 miles , 16 km
Cloud details: Mostly cloudy 9000 ft
2014/10/22 02:55 KVUJ 220255Z AUTO 36005KT 10SM BKN090 14/04 A3002 RMK AO2 T01400041
KAFP - Wadesboro/Anson, North Carolina, USA
Distance from station: ESE 31mi, 50km
Updated: Tue, 10/21/2014 10:55pm EDT
Overcast
Overcast
 Wind from NW
Wind: NW 8 mph , 13 km/h
Temperature: 61°F , 16°C
Dew Point: 41°F , 5°C
Humidity: 48%
Barometer: 29.97 inHg , 1014.9 hPa
Clouds: Overcast
Visibility: 10 miles , 16 km
Cloud details: Overcast 7000 ft
2014/10/22 02:55 KAFP 220255Z AUTO 32007KT 10SM OVC070 16/05 A2997 RMK AO2 T01580045
 
KAKH - Gastonia, North Carolina, USA
Distance from station: W 31mi, 51km
Updated: Tue, 10/21/2014 10:54pm EDT
Clear
Clear
 Wind from N
Wind: N 8 mph , 13 km/h
Temperature: 55°F , 13°C
Dew Point: 39°F , 4°C
Humidity: 55%
Barometer: 29.98 inHg , 1015.2 hPa
Clouds: Clear
Visibility: 10 miles , 16 km
2014/10/22 02:54 KAKH 220254Z AUTO 35007KT 10SM CLR 13/04 A2998 RMK AO2 SLP150 T01330039 51015
KRUQ - Salisbury Rowan, North Carolina, USA
Distance from station: N 33mi, 53km
Updated: Tue, 10/21/2014 10:55pm EDT
Clear
Clear
 Wind from NNW
Wind: NNW 13 mph , 20 km/h, Gust: 18 mph , 30 km/h
Temperature: 54°F , 12°C
Dew Point: 37°F , 3°C
Humidity: 54%
Barometer: 30.00 inHg , 1015.9 hPa
Clouds: Clear
Visibility: 10 miles , 16 km
2014/10/22 02:55 KRUQ 220255Z AUTO 34011G16KT 10SM CLR 12/03 A3000 RMK AO2 T01230032
 
KLKR - Lancaster, South Carolina, USA
Distance from station: SSW 35mi, 57km
Updated: Tue, 10/21/2014 10:55pm EDT
Partly cloudy
Partly cloudy
 Wind from N
Wind: N 3 mph , 6 km/h
Temperature: 59°F , 15°C
Dew Point: 41°F , 5°C
Humidity: 51%
Barometer: 29.98 inHg , 1015.2 hPa
Clouds: Partly cloudy
Visibility: 10 miles , 16 km
Cloud details: Few Clouds 6000 ft
Partly cloudy 7500 ft
2014/10/22 02:55 KLKR 220255Z AUTO 36003KT 10SM FEW060 SCT075 15/05 A2998 RMK AO2
KIPJ - Lincolnton, North Carolina, USA
Distance from station: WNW 39mi, 62km
Updated: Tue, 10/21/2014 10:55pm EDT
Clear
Clear
 Wind from calm
Wind: Calm
Temperature: 54°F , 12°C
Dew Point: 39°F , 4°C
Humidity: 58%
Barometer: 30.01 inHg , 1016.3 hPa
Clouds: Clear
Visibility: 10 miles , 16 km
2014/10/22 02:55 KIPJ 220255Z AUTO 00000KT 10SM CLR 12/04 A3001 RMK AO2 T01160042
 
KDCM - Chester Catawba, South Carolina, USA
Distance from station: SW 44mi, 71km
Updated: Fri, 10/03/2014 7:35pm EDT
NOT Current
Partly cloudy
Partly cloudy
 Wind from calm
Wind: Calm
Temperature: 73°F , 23°C
Dew Point: 70°F , 21°C
Humidity: 89%
Barometer: 29.88 inHg , 1011.9 hPa
Clouds: Partly cloudy
Visibility: 10 miles , 16 km
Cloud details: Partly cloudy 1000 ft
Partly cloudy 1400 ft
2014/10/03 23:35 KDCM 032335Z AUTO 00000KT 10SM SCT010 SCT014 23/21 A2988 RMK AO2 LTG DSNT SE
KSVH - Statesville, North Carolina, USA
Distance from station: NNW 44mi, 71km
Updated: Tue, 10/21/2014 10:55pm EDT
Clear
Clear
 Wind from N
Wind: N 6 mph , 9 km/h
Temperature: 54°F , 12°C
Dew Point: 39°F , 4°C
Humidity: 58%
Barometer: 30.01 inHg , 1016.3 hPa
Clouds: Clear
Visibility: 10 miles , 16 km
2014/10/22 02:55 KSVH 220255Z AUTO 36005KT 10SM CLR 12/04 A3001 RMK AO2 T01150037
 
KEXX - Davidson Cty Ap, North Carolina, USA
Distance from station: NNE 45mi, 72km
Updated: Tue, 10/21/2014 10:55pm EDT
Clear
Clear
 Wind from NW
Wind: NW 3 mph , 6 km/h
Temperature: 54°F , 12°C
Dew Point: 39°F , 4°C
Humidity: 58%
Barometer: 29.99 inHg , 1015.6 hPa
Clouds: Clear
Visibility: 10 miles , 16 km
2014/10/22 02:55 KEXX 220255Z AUTO 32003KT 10SM CLR 12/04 A2999 RMK AO2 T01220040
KCQW - Cheraw, South Carolina, USA
Distance from station: SE 49mi, 78km
Updated: Tue, 10/21/2014 10:55pm EDT
Clear
Clear
 Wind from N
Wind: N 6 mph , 9 km/h
Temperature: 59°F , 15°C
Dew Point: 43°F , 6°C
Humidity: 55%
Barometer: 29.95 inHg , 1014.2 hPa
Clouds: Clear
Visibility: 10 miles , 16 km
2014/10/22 02:55 KCQW 220255Z AUTO 35005KT 10SM CLR 15/06 A2995 RMK AO2